Afton, New York
Current Conditions -  °F | °C
As of 10:53 AM on Saturday 22 Nov 2014 (Local Time) from KBGM Reporting Station
Broken Clouds Broken Clouds  
Wind Chill: 21°   Ceiling: 5000
Heat Index: 31°   Visibility: 10mi
Dew Point:   Wind: 14mph
Humidity: 40%   Direction: 230°SW
Pressure: 30.21"   Gusts: 21mph
Location:  42.23°N, 75.53°W
Report Text: KBGM 221553Z 23012G18KT 10SM BKN050 M01/M13 A3021 RMK AO2 SLP254 T10061128
Loading
Personal Weather Stations






























Interactive Weather Map New forecast layout! Learn more

10-Day Weather Forecast

Advertisements
Track Severe Weather on mobile